Bei Facebook empfehlenBei Twitter postenGoogle plusPinterest

Das Wetter im Erzgebirge am 06.03.2015

Wetter und Klima am 06.03.2015 Holzhau im Erzgebirge (630m ü.NN)
Letzte gemessene Temperatur und Uhrzeit der Messung23:45:00 Uhr0.40 °C
Temperatur (Maximum / Höchstwert) und Uhrzeit der Messung14:30:00 Uhr4.30 °C
Temperatur (Minimum / Tiefstwert) und Uhrzeit der Messung06:45:00-0.20 °C
Errechneter Absolutwert der Temperaturschwankungen zwischen Tmin und Tmax des Tages4.50 K
Errechnete Tagesmitteltemperatur1.18229 °C
Gesamt - Niederschlag des Tages (in flüssiger Form)3.11 Liter / m²
Luftdruck (Maximum / Höchstwert) und Zeitpunkt der Messung22:00:00 Uhr1031.10 hPa
Luftdruck (Minimum / Tiefstwert) und Zeitpunkt der Messung04:15:00 Uhr1029.40 hPa
Errechneter Absolutwert der Luftdruckschwankungen des Tages1.70 hPa
Höchste gemessene Windgeschwindigkeit und Uhrzeit der Messung23:45:00 Uhr0.00 km/h
Errechnete Windhäufigkeit in Relation zu den Messwerten des Tages0.00000 %
Niedrigste Windkühle (Windchill) und Zeitpunkt der Messung06:45:00 Uhr-0.20 °C
Taupunkt (Maximum / Höchstwert) und Uhrzeit der Messung14:30:00 Uhr2.00 °C
Taupunkt (Minimum / Tiefstwert) und Uhrzeit der Messung06:45:00-1.50 °C
Anzahl der automatisch eingelesenen Messwerte 96

Detaillierte Wetter- und Klima- Messwerte für den 06.03.2015 in Holzhau im Erzgebirge (630m ü.NN)
ZeitTemperaturLuftdruckRel. LuftfeuchteWindWindrichtungWindchillTaupunktNiederschlag l/m²
23:45:000.40 °C1030.50 hPa92.00 %-0.70 °C3.11
23:30:000.40 °C1030.60 hPa92.00 %-0.70 °C3.11
23:15:000.30 °C1030.70 hPa92.00 %-0.80 °C3.11
23:00:000.30 °C1030.80 hPa91.00 %-1.00 °C3.11
22:45:000.40 °C1030.80 hPa91.00 %-0.90 °C3.11
22:30:000.40 °C1030.80 hPa91.00 %-0.90 °C3.11
22:15:000.50 °C1030.60 hPa91.00 %-0.80 °C3.11
22:00:000.50 °C1031.10 hPa91.00 %-0.80 °C3.11
21:45:000.60 °C1031.00 hPa91.00 %-0.70 °C3.11
21:30:000.60 °C1030.90 hPa91.00 %-0.70 °C3.11
21:15:000.70 °C1030.90 hPa91.00 %-0.60 °C3.11
21:00:000.80 °C1030.80 hPa91.00 %-0.50 °C3.11
20:45:000.70 °C1031.10 hPa91.00 %-0.60 °C3.11
20:30:000.80 °C1031.10 hPa91.00 %-0.50 °C3.11
20:15:000.80 °C1030.80 hPa90.00 %-0.60 °C3.11
20:00:000.80 °C1030.60 hPa90.00 %-0.60 °C3.11
19:45:000.80 °C1030.40 hPa90.00 %-0.60 °C3.11
19:30:000.80 °C1030.40 hPa90.00 %-0.60 °C3.11
19:15:000.90 °C1030.40 hPa90.00 %-0.50 °C3.11
19:00:001.00 °C1030.10 hPa90.00 %-0.50 °C3.11
18:45:001.10 °C1030.20 hPa89.00 %-0.50 °C3.11
18:30:001.10 °C1030.00 hPa89.00 %-0.50 °C3.11
18:15:001.20 °C1030.00 hPa89.00 %-0.40 °C3.11
18:00:001.30 °C1030.00 hPa89.00 %-0.30 °C3.11
17:45:001.40 °C1029.90 hPa89.00 %-0.20 °C3.11
17:30:001.50 °C1029.70 hPa89.00 %-0.10 °C3.11
17:15:001.60 °C1029.70 hPa88.00 %-0.20 °C3.11
17:00:001.80 °C1029.80 hPa88.00 %0.00 °C3.11
16:45:001.90 °C1029.80 hPa88.00 %0.10 °C3.11
16:30:002.00 °C1029.70 hPa88.00 %0.20 °C3.11
16:15:001.90 °C1029.60 hPa88.00 %0.10 °C3.11
16:00:002.10 °C1029.80 hPa87.00 %0.20 °C3.11
15:45:002.20 °C1029.70 hPa86.00 %0.10 °C3.11
15:30:002.50 °C1029.80 hPa85.00 %0.20 °C2.59
15:15:003.00 °C1029.70 hPa84.00 %0.60 °C2.59
15:00:003.50 °C1029.90 hPa84.00 %1.10 °C2.59
14:45:003.90 °C1030.10 hPa84.00 %1.40 °C2.59
14:30:004.30 °C1030.30 hPa85.00 %2.00 °C2.59
14:15:004.00 °C1030.30 hPa86.00 %1.90 °C2.59
14:00:003.30 °C1030.20 hPa87.00 %1.30 °C2.59
13:45:003.10 °C1030.50 hPa87.00 %1.20 °C2.07
13:30:003.40 °C1030.50 hPa86.00 %1.30 °C2.07
13:15:003.40 °C1030.60 hPa86.00 %1.30 °C2.07
13:00:003.60 °C1030.70 hPa86.00 %1.50 °C2.07
12:45:003.40 °C1030.80 hPa87.00 %1.40 °C2.07
12:30:003.50 °C1030.80 hPa88.00 %1.70 °C1.55
12:15:003.10 °C1030.90 hPa89.00 %1.50 °C1.55
12:00:002.90 °C1030.80 hPa90.00 %1.40 °C1.03
11:45:002.70 °C1030.90 hPa90.00 %1.20 °C1.03
11:30:002.40 °C1030.90 hPa90.00 %0.90 °C1.03
11:15:002.20 °C1031.00 hPa91.00 %0.90 °C0.52
11:00:002.10 °C1031.10 hPa91.00 %0.80 °C0.52
10:45:002.30 °C1031.00 hPa91.00 %1.00 °C 
10:30:002.70 °C1031.10 hPa92.00 %1.50 °C 
10:15:002.50 °C1030.90 hPa92.00 %1.30 °C 
10:00:002.00 °C1030.80 hPa93.00 %1.00 °C 
09:45:001.50 °C1031.00 hPa93.00 %0.50 °C 
09:30:001.10 °C1030.70 hPa93.00 %0.10 °C 
09:15:000.60 °C1030.80 hPa93.00 %-0.40 °C 
09:00:000.70 °C1030.70 hPa93.00 %-0.30 °C 
08:45:000.60 °C1030.80 hPa93.00 %-0.40 °C 
08:30:000.50 °C1030.80 hPa93.00 %-0.50 °C 
08:15:000.30 °C1030.60 hPa92.00 %-0.80 °C 
08:00:000.20 °C1030.60 hPa92.00 %-0.90 °C 
07:45:000.20 °C1030.20 hPa92.00 %-0.90 °C 
07:30:000.10 °C1030.20 hPa92.00 %-1.00 °C 
07:15:000.10 °C1030.20 hPa92.00 %-1.00 °C 
07:00:00-0.10 °C1030.20 hPa92.00 %-1.40 °C 
06:45:00-0.20 °C1030.10 hPa92.00 %-1.50 °C 
06:30:00-0.10 °C1030.00 hPa92.00 %-1.40 °C 
06:15:00-0.10 °C1030.30 hPa92.00 %-1.40 °C 
06:00:00-0.10 °C1030.10 hPa92.00 %-1.40 °C 
05:45:00-0.10 °C1029.90 hPa92.00 %-1.40 °C 
05:30:00-0.10 °C1030.10 hPa92.00 %-1.40 °C 
05:15:00-0.10 °C1030.00 hPa92.00 %-1.40 °C 
05:00:00-0.10 °C1029.80 hPa92.00 %-1.40 °C 
04:45:000.00 °C1029.80 hPa92.00 %-1.30 °C 
04:30:000.10 °C1029.90 hPa92.00 %-1.00 °C 
04:15:000.10 °C1029.40 hPa92.00 %-1.00 °C 
04:00:000.10 °C1029.40 hPa92.00 %-1.00 °C 
03:45:000.10 °C1029.70 hPa92.00 %-1.00 °C 
03:30:000.10 °C1029.80 hPa92.00 %-1.00 °C 
03:15:000.20 °C1029.70 hPa92.00 %-0.90 °C 
03:00:000.20 °C1029.70 hPa92.00 %-0.90 °C 
02:45:000.20 °C1029.80 hPa92.00 %-0.90 °C 
02:30:000.30 °C1029.80 hPa92.00 %-0.80 °C 
02:15:000.30 °C1029.90 hPa92.00 %-0.80 °C 
02:00:000.30 °C1030.00 hPa92.00 %-0.80 °C 
01:45:000.40 °C1029.90 hPa92.00 %-0.70 °C 
01:30:000.40 °C1029.90 hPa92.00 %-0.70 °C 
01:15:000.40 °C1029.90 hPa92.00 %-0.70 °C 
01:00:000.40 °C1029.60 hPa92.00 %-0.70 °C 
00:45:000.40 °C1029.60 hPa92.00 %-0.70 °C 
00:30:000.40 °C1029.50 hPa92.00 %-0.70 °C 
00:15:000.40 °C1029.60 hPa91.00 %-0.90 °C 
00:00:000.40 °C1029.80 hPa91.00 %-0.90 °C 

Permanenter Link zu dieser Seite: Wetter im Erzgebirge am 06.03.2015
Performance-Info: Die Erstellung der Seite / Statistik(en) / Tabelle(n) erforderte 5 Datenbankserver-Abfrage(n) und dauerte 101 Millisekunden. (Dieser Messwert ist von der Gesamt-Auslastung des Servers abhängig.)
Erzgebirge - Wetter | Erzgebirge - Wetter (Mobilgeräte) | Komplette Klimadatenbank